Mount Olive, Alabama
Current Conditions -  °F | °C
As of 1:53 PM on Thursday 30 Oct 2014 (Local Time) from KBHM Reporting Station
Clear Clear  
Wind Chill: 66°   Ceiling: Unl
Heat Index: 66°   Visibility: 10mi
Dew Point: 35°   Wind: 10mph
Humidity: 32%   Direction: 340°NNW
Pressure: 30.08"   Gusts: NA
Location:  33.67°N, 86.85°W
Report Text: KBHM 301853Z 34009KT 10SM CLR 19/02 A3008 RMK AO2 SLP181 T01890017
Loading
Personal Weather Stations






























Interactive Weather Map
Tropical Storm Tracking
New forecast layout! Learn more

10-Day Weather Forecast

Advertisements
Track Severe Weather on mobile